sensor_id;sensor_type;location;lat;lon;timestamp;temperature;humidity
22779;DHT22;11556;51.194;3.800;2024-03-06T00:01:34;8.90;99.90
22779;DHT22;11556;51.194;3.800;2024-03-06T00:04:00;8.90;99.90
22779;DHT22;11556;51.194;3.800;2024-03-06T00:06:27;9.00;99.90
22779;DHT22;11556;51.194;3.800;2024-03-06T00:08:52;8.90;99.90
22779;DHT22;11556;51.194;3.800;2024-03-06T00:11:18;8.80;99.90
22779;DHT22;11556;51.194;3.800;2024-03-06T00:13:43;8.70;99.90
22779;DHT22;11556;51.194;3.800;2024-03-06T00:16:10;8.70;99.90
22779;DHT22;11556;51.194;3.800;2024-03-06T00:18:35;8.70;99.90
22779;DHT22;11556;51.194;3.800;2024-03-06T00:21:01;8.60;99.90
22779;DHT22;11556;51.194;3.800;2024-03-06T00:23:26;8.60;99.90
22779;DHT22;11556;51.194;3.800;2024-03-06T00:25:52;8.50;99.90
22779;DHT22;11556;51.194;3.800;2024-03-06T00:28:18;8.50;99.90
22779;DHT22;11556;51.194;3.800;2024-03-06T00:30:43;8.40;99.90
22779;DHT22;11556;51.194;3.800;2024-03-06T00:33:09;8.50;99.90
22779;DHT22;11556;51.194;3.800;2024-03-06T00:35:34;8.60;99.90
22779;DHT22;11556;51.194;3.800;2024-03-06T00:38:00;8.50;99.90
22779;DHT22;11556;51.194;3.800;2024-03-06T00:40:29;8.60;99.90
22779;DHT22;11556;51.194;3.800;2024-03-06T00:42:57;8.60;99.90
22779;DHT22;11556;51.194;3.800;2024-03-06T00:45:23;8.60;99.90
22779;DHT22;11556;51.194;3.800;2024-03-06T00:47:49;8.60;99.90
22779;DHT22;11556;51.194;3.800;2024-03-06T00:50:15;8.70;99.90
22779;DHT22;11556;51.194;3.800;2024-03-06T00:52:45;8.70;99.90
22779;DHT22;11556;51.194;3.800;2024-03-06T00:55:11;8.70;99.90
22779;DHT22;11556;51.194;3.800;2024-03-06T00:57:36;8.70;99.90
22779;DHT22;11556;51.194;3.800;2024-03-06T01:00:05;8.70;99.90
22779;DHT22;11556;51.194;3.800;2024-03-06T01:02:39;8.60;99.90
22779;DHT22;11556;51.194;3.800;2024-03-06T01:05:04;8.60;99.90
22779;DHT22;11556;51.194;3.800;2024-03-06T01:07:31;8.60;99.90
22779;DHT22;11556;51.194;3.800;2024-03-06T01:09:57;8.70;99.90
22779;DHT22;11556;51.194;3.800;2024-03-06T01:12:23;8.60;99.90
22779;DHT22;11556;51.194;3.800;2024-03-06T01:14:49;8.80;99.90
22779;DHT22;11556;51.194;3.800;2024-03-06T01:17:15;8.70;99.90
22779;DHT22;11556;51.194;3.800;2024-03-06T01:19:40;8.60;99.90
22779;DHT22;11556;51.194;3.800;2024-03-06T01:22:10;8.50;99.90
22779;DHT22;11556;51.194;3.800;2024-03-06T01:24:36;8.50;99.90
22779;DHT22;11556;51.194;3.800;2024-03-06T01:27:02;8.50;99.90
22779;DHT22;11556;51.194;3.800;2024-03-06T01:29:29;8.40;99.90
22779;DHT22;11556;51.194;3.800;2024-03-06T01:31:54;8.50;99.90
22779;DHT22;11556;51.194;3.800;2024-03-06T01:34:20;8.40;99.90
22779;DHT22;11556;51.194;3.800;2024-03-06T01:36:46;8.40;99.90
22779;DHT22;11556;51.194;3.800;2024-03-06T01:39:12;8.30;99.90
22779;DHT22;11556;51.194;3.800;2024-03-06T01:41:44;8.30;99.90
22779;DHT22;11556;51.194;3.800;2024-03-06T01:44:09;8.20;99.90
22779;DHT22;11556;51.194;3.800;2024-03-06T01:46:35;8.20;99.90
22779;DHT22;11556;51.194;3.800;2024-03-06T01:49:00;8.20;99.90
22779;DHT22;11556;51.194;3.800;2024-03-06T01:51:26;8.20;99.90
22779;DHT22;11556;51.194;3.800;2024-03-06T01:53:52;8.20;99.90
22779;DHT22;11556;51.194;3.800;2024-03-06T01:56:18;8.10;99.90
22779;DHT22;11556;51.194;3.800;2024-03-06T01:58:46;8.10;99.90
22779;DHT22;11556;51.194;3.800;2024-03-06T02:01:12;8.00;99.90
22779;DHT22;11556;51.194;3.800;2024-03-06T02:03:38;7.90;99.90
22779;DHT22;11556;51.194;3.800;2024-03-06T02:06:05;7.80;99.90
22779;DHT22;11556;51.194;3.800;2024-03-06T02:08:31;7.70;99.90
22779;DHT22;11556;51.194;3.800;2024-03-06T02:10:58;7.50;99.90
22779;DHT22;11556;51.194;3.800;2024-03-06T02:13:27;7.50;99.90
22779;DHT22;11556;51.194;3.800;2024-03-06T02:15:53;7.40;99.90
22779;DHT22;11556;51.194;3.800;2024-03-06T02:18:18;7.20;99.90
22779;DHT22;11556;51.194;3.800;2024-03-06T02:20:44;7.20;99.90
22779;DHT22;11556;51.194;3.800;2024-03-06T02:23:12;7.20;99.90
22779;DHT22;11556;51.194;3.800;2024-03-06T02:25:37;7.20;99.90
22779;DHT22;11556;51.194;3.800;2024-03-06T02:28:03;7.10;99.90
22779;DHT22;11556;51.194;3.800;2024-03-06T02:30:29;7.10;99.90
22779;DHT22;11556;51.194;3.800;2024-03-06T02:33:01;7.00;99.90
22779;DHT22;11556;51.194;3.800;2024-03-06T02:35:27;6.90;99.90
22779;DHT22;11556;51.194;3.800;2024-03-06T02:37:53;6.80;99.90
22779;DHT22;11556;51.194;3.800;2024-03-06T02:40:18;6.80;99.90
22779;DHT22;11556;51.194;3.800;2024-03-06T02:42:44;6.90;99.90
22779;DHT22;11556;51.194;3.800;2024-03-06T02:45:09;6.80;99.90
22779;DHT22;11556;51.194;3.800;2024-03-06T02:47:35;6.70;99.90
22779;DHT22;11556;51.194;3.800;2024-03-06T02:50:01;6.80;99.90
22779;DHT22;11556;51.194;3.800;2024-03-06T02:52:27;6.70;99.90
22779;DHT22;11556;51.194;3.800;2024-03-06T02:54:52;6.70;99.90
22779;DHT22;11556;51.194;3.800;2024-03-06T02:57:18;6.70;99.90
22779;DHT22;11556;51.194;3.800;2024-03-06T02:59:43;6.70;99.90
22779;DHT22;11556;51.194;3.800;2024-03-06T03:02:09;6.60;99.90
22779;DHT22;11556;51.194;3.800;2024-03-06T03:04:35;6.50;99.90
22779;DHT22;11556;51.194;3.800;2024-03-06T03:07:00;6.50;99.90
22779;DHT22;11556;51.194;3.800;2024-03-06T03:09:26;6.40;99.90
22779;DHT22;11556;51.194;3.800;2024-03-06T03:11:52;6.30;99.90
22779;DHT22;11556;51.194;3.800;2024-03-06T03:14:17;6.30;99.90
22779;DHT22;11556;51.194;3.800;2024-03-06T03:16:44;6.20;99.90
22779;DHT22;11556;51.194;3.800;2024-03-06T03:19:09;6.20;99.90
22779;DHT22;11556;51.194;3.800;2024-03-06T03:21:35;6.20;99.90
22779;DHT22;11556;51.194;3.800;2024-03-06T03:24:01;6.10;99.90
22779;DHT22;11556;51.194;3.800;2024-03-06T03:26:26;6.10;99.90
22779;DHT22;11556;51.194;3.800;2024-03-06T03:28:52;6.00;99.90
22779;DHT22;11556;51.194;3.800;2024-03-06T03:31:17;6.00;99.90
22779;DHT22;11556;51.194;3.800;2024-03-06T03:33:43;5.90;99.90
22779;DHT22;11556;51.194;3.800;2024-03-06T03:36:09;5.80;99.90
22779;DHT22;11556;51.194;3.800;2024-03-06T03:38:39;5.90;99.90
22779;DHT22;11556;51.194;3.800;2024-03-06T03:41:07;6.00;99.90
22779;DHT22;11556;51.194;3.800;2024-03-06T03:43:33;5.90;99.90
22779;DHT22;11556;51.194;3.800;2024-03-06T03:45:59;5.90;99.90
22779;DHT22;11556;51.194;3.800;2024-03-06T03:48:24;6.00;99.90
22779;DHT22;11556;51.194;3.800;2024-03-06T03:50:50;6.00;99.90
22779;DHT22;11556;51.194;3.800;2024-03-06T03:53:16;6.00;99.90
22779;DHT22;11556;51.194;3.800;2024-03-06T03:55:41;6.00;99.90
22779;DHT22;11556;51.194;3.800;2024-03-06T03:58:07;6.10;99.90
22779;DHT22;11556;51.194;3.800;2024-03-06T04:00:33;6.10;99.90
22779;DHT22;11556;51.194;3.800;2024-03-06T04:02:59;6.10;99.90
22779;DHT22;11556;51.194;3.800;2024-03-06T04:05:25;6.20;99.90
22779;DHT22;11556;51.194;3.800;2024-03-06T04:07:51;6.10;99.90
22779;DHT22;11556;51.194;3.800;2024-03-06T04:10:16;6.10;99.90
22779;DHT22;11556;51.194;3.800;2024-03-06T04:12:42;6.10;99.90
22779;DHT22;11556;51.194;3.800;2024-03-06T04:15:08;6.00;99.90
22779;DHT22;11556;51.194;3.800;2024-03-06T04:17:34;6.00;99.90
22779;DHT22;11556;51.194;3.800;2024-03-06T04:20:02;5.90;99.90
22779;DHT22;11556;51.194;3.800;2024-03-06T04:22:28;5.80;99.90
22779;DHT22;11556;51.194;3.800;2024-03-06T04:24:54;5.70;99.90
22779;DHT22;11556;51.194;3.800;2024-03-06T04:27:21;5.70;99.90
22779;DHT22;11556;51.194;3.800;2024-03-06T04:29:47;5.60;99.90
22779;DHT22;11556;51.194;3.800;2024-03-06T04:32:12;5.60;99.90
22779;DHT22;11556;51.194;3.800;2024-03-06T04:34:38;5.60;99.90
22779;DHT22;11556;51.194;3.800;2024-03-06T04:37:04;5.60;99.90
22779;DHT22;11556;51.194;3.800;2024-03-06T04:39:29;5.50;99.90
22779;DHT22;11556;51.194;3.800;2024-03-06T04:41:55;5.60;99.90
22779;DHT22;11556;51.194;3.800;2024-03-06T04:44:21;5.50;99.90
22779;DHT22;11556;51.194;3.800;2024-03-06T04:46:50;5.60;99.90
22779;DHT22;11556;51.194;3.800;2024-03-06T04:49:16;5.50;99.90
22779;DHT22;11556;51.194;3.800;2024-03-06T04:51:41;5.50;99.90
22779;DHT22;11556;51.194;3.800;2024-03-06T04:54:07;5.50;99.90
22779;DHT22;11556;51.194;3.800;2024-03-06T04:56:34;5.50;99.90
22779;DHT22;11556;51.194;3.800;2024-03-06T04:58:59;5.50;99.90
22779;DHT22;11556;51.194;3.800;2024-03-06T05:01:29;5.50;99.90
22779;DHT22;11556;51.194;3.800;2024-03-06T05:03:55;5.40;99.90
22779;DHT22;11556;51.194;3.800;2024-03-06T05:06:21;5.40;99.90
22779;DHT22;11556;51.194;3.800;2024-03-06T05:08:47;5.30;99.90
22779;DHT22;11556;51.194;3.800;2024-03-06T05:11:13;5.20;99.90
22779;DHT22;11556;51.194;3.800;2024-03-06T05:13:38;5.30;99.90
22779;DHT22;11556;51.194;3.800;2024-03-06T05:16:06;5.20;99.90
22779;DHT22;11556;51.194;3.800;2024-03-06T05:18:34;5.30;99.90
22779;DHT22;11556;51.194;3.800;2024-03-06T05:21:00;5.30;99.90
22779;DHT22;11556;51.194;3.800;2024-03-06T05:23:26;5.20;99.90
22779;DHT22;11556;51.194;3.800;2024-03-06T05:25:52;5.30;99.90
22779;DHT22;11556;51.194;3.800;2024-03-06T05:28:18;5.20;99.90
22779;DHT22;11556;51.194;3.800;2024-03-06T05:30:43;5.20;99.90
22779;DHT22;11556;51.194;3.800;2024-03-06T05:33:09;5.10;99.90
22779;DHT22;11556;51.194;3.800;2024-03-06T05:35:34;5.10;99.90
22779;DHT22;11556;51.194;3.800;2024-03-06T05:38:00;5.10;99.90
22779;DHT22;11556;51.194;3.800;2024-03-06T05:40:26;5.20;99.90
22779;DHT22;11556;51.194;3.800;2024-03-06T05:42:51;5.30;99.90
22779;DHT22;11556;51.194;3.800;2024-03-06T05:45:17;5.30;99.90
22779;DHT22;11556;51.194;3.800;2024-03-06T05:47:43;5.50;99.90
22779;DHT22;11556;51.194;3.800;2024-03-06T05:50:09;5.50;99.90
22779;DHT22;11556;51.194;3.800;2024-03-06T05:52:36;5.50;99.90
22779;DHT22;11556;51.194;3.800;2024-03-06T05:55:02;5.40;99.90
22779;DHT22;11556;51.194;3.800;2024-03-06T05:57:31;5.30;99.90
22779;DHT22;11556;51.194;3.800;2024-03-06T05:59:57;5.30;99.90
22779;DHT22;11556;51.194;3.800;2024-03-06T06:02:23;5.20;99.90
22779;DHT22;11556;51.194;3.800;2024-03-06T06:04:48;5.20;99.90
22779;DHT22;11556;51.194;3.800;2024-03-06T06:07:14;5.10;99.90
22779;DHT22;11556;51.194;3.800;2024-03-06T06:09:41;5.20;99.90
22779;DHT22;11556;51.194;3.800;2024-03-06T06:12:06;5.10;99.90
22779;DHT22;11556;51.194;3.800;2024-03-06T06:14:32;5.10;99.90
22779;DHT22;11556;51.194;3.800;2024-03-06T06:16:58;5.00;99.90
22779;DHT22;11556;51.194;3.800;2024-03-06T06:19:23;5.00;99.90
22779;DHT22;11556;51.194;3.800;2024-03-06T06:21:49;5.00;99.90
22779;DHT22;11556;51.194;3.800;2024-03-06T06:24:17;5.00;99.90
22779;DHT22;11556;51.194;3.800;2024-03-06T06:26:42;5.00;99.90
22779;DHT22;11556;51.194;3.800;2024-03-06T06:29:08;5.10;99.90
22779;DHT22;11556;51.194;3.800;2024-03-06T06:31:33;5.00;99.90
22779;DHT22;11556;51.194;3.800;2024-03-06T06:33:59;5.10;99.90
22779;DHT22;11556;51.194;3.800;2024-03-06T06:36:25;5.10;99.90
22779;DHT22;11556;51.194;3.800;2024-03-06T06:38:50;5.10;99.90
22779;DHT22;11556;51.194;3.800;2024-03-06T06:41:17;5.10;99.90
22779;DHT22;11556;51.194;3.800;2024-03-06T06:43:42;5.20;99.90
22779;DHT22;11556;51.194;3.800;2024-03-06T06:46:08;5.30;99.90
22779;DHT22;11556;51.194;3.800;2024-03-06T06:48:34;5.40;99.90
22779;DHT22;11556;51.194;3.800;2024-03-06T06:51:00;5.50;99.90
22779;DHT22;11556;51.194;3.800;2024-03-06T06:53:32;5.60;99.90
22779;DHT22;11556;51.194;3.800;2024-03-06T06:55:58;5.70;99.90
22779;DHT22;11556;51.194;3.800;2024-03-06T06:58:24;5.80;99.90
22779;DHT22;11556;51.194;3.800;2024-03-06T07:00:52;6.00;99.90
22779;DHT22;11556;51.194;3.800;2024-03-06T07:03:18;6.10;99.90
22779;DHT22;11556;51.194;3.800;2024-03-06T07:05:44;6.20;99.90
22779;DHT22;11556;51.194;3.800;2024-03-06T07:08:09;6.40;99.90
22779;DHT22;11556;51.194;3.800;2024-03-06T07:10:35;6.50;99.90
22779;DHT22;11556;51.194;3.800;2024-03-06T07:13:02;6.60;99.90
22779;DHT22;11556;51.194;3.800;2024-03-06T07:15:28;6.70;99.90
22779;DHT22;11556;51.194;3.800;2024-03-06T07:17:54;6.70;99.90
22779;DHT22;11556;51.194;3.800;2024-03-06T07:20:19;6.80;99.90
22779;DHT22;11556;51.194;3.800;2024-03-06T07:22:45;6.90;99.90
22779;DHT22;11556;51.194;3.800;2024-03-06T07:25:11;7.10;99.90
22779;DHT22;11556;51.194;3.800;2024-03-06T07:27:37;7.10;99.90
22779;DHT22;11556;51.194;3.800;2024-03-06T07:30:02;7.30;99.90
22779;DHT22;11556;51.194;3.800;2024-03-06T07:32:28;7.30;99.90
22779;DHT22;11556;51.194;3.800;2024-03-06T07:34:54;7.30;99.90
22779;DHT22;11556;51.194;3.800;2024-03-06T07:37:19;7.40;99.90
22779;DHT22;11556;51.194;3.800;2024-03-06T07:39:45;7.30;99.90
22779;DHT22;11556;51.194;3.800;2024-03-06T07:42:11;7.10;99.90
22779;DHT22;11556;51.194;3.800;2024-03-06T07:44:36;7.00;99.90
22779;DHT22;11556;51.194;3.800;2024-03-06T07:47:02;6.90;99.90
22779;DHT22;11556;51.194;3.800;2024-03-06T07:49:29;6.90;99.90
22779;DHT22;11556;51.194;3.800;2024-03-06T07:51:54;6.90;99.90
22779;DHT22;11556;51.194;3.800;2024-03-06T07:54:20;6.80;99.90
22779;DHT22;11556;51.194;3.800;2024-03-06T07:56:47;6.90;99.90
22779;DHT22;11556;51.194;3.800;2024-03-06T07:59:13;7.10;99.90
22779;DHT22;11556;51.194;3.800;2024-03-06T08:01:40;7.20;99.90
22779;DHT22;11556;51.194;3.800;2024-03-06T08:04:06;7.40;99.90
22779;DHT22;11556;51.194;3.800;2024-03-06T08:06:32;7.50;99.90
22779;DHT22;11556;51.194;3.800;2024-03-06T08:08:59;7.60;99.90
22779;DHT22;11556;51.194;3.800;2024-03-06T08:11:25;7.50;99.90
22779;DHT22;11556;51.194;3.800;2024-03-06T08:13:57;7.60;99.90
22779;DHT22;11556;51.194;3.800;2024-03-06T08:16:23;7.70;99.90
22779;DHT22;11556;51.194;3.800;2024-03-06T08:18:49;7.70;99.90
22779;DHT22;11556;51.194;3.800;2024-03-06T08:21:14;7.80;99.90
22779;DHT22;11556;51.194;3.800;2024-03-06T08:23:40;7.90;99.90
22779;DHT22;11556;51.194;3.800;2024-03-06T08:26:05;8.00;99.90
22779;DHT22;11556;51.194;3.800;2024-03-06T08:28:31;8.20;99.90
22779;DHT22;11556;51.194;3.800;2024-03-06T08:30:57;8.40;99.90
22779;DHT22;11556;51.194;3.800;2024-03-06T08:33:22;8.20;99.90
22779;DHT22;11556;51.194;3.800;2024-03-06T08:35:48;8.30;99.90
22779;DHT22;11556;51.194;3.800;2024-03-06T08:38:14;8.20;99.90
22779;DHT22;11556;51.194;3.800;2024-03-06T08:40:39;8.30;99.90
22779;DHT22;11556;51.194;3.800;2024-03-06T08:43:07;8.40;99.90
22779;DHT22;11556;51.194;3.800;2024-03-06T08:45:34;8.70;99.90
22779;DHT22;11556;51.194;3.800;2024-03-06T08:48:01;9.00;99.90
22779;DHT22;11556;51.194;3.800;2024-03-06T08:50:27;9.10;99.90
22779;DHT22;11556;51.194;3.800;2024-03-06T08:52:52;9.30;99.90
22779;DHT22;11556;51.194;3.800;2024-03-06T08:55:18;9.40;99.90
22779;DHT22;11556;51.194;3.800;2024-03-06T08:57:44;9.30;99.90
22779;DHT22;11556;51.194;3.800;2024-03-06T09:00:10;9.10;99.90
22779;DHT22;11556;51.194;3.800;2024-03-06T09:02:37;8.80;99.90
22779;DHT22;11556;51.194;3.800;2024-03-06T09:05:09;8.70;99.90
22779;DHT22;11556;51.194;3.800;2024-03-06T09:07:39;8.70;99.90
22779;DHT22;11556;51.194;3.800;2024-03-06T09:10:06;8.70;99.90
22779;DHT22;11556;51.194;3.800;2024-03-06T09:12:32;8.80;99.90
22779;DHT22;11556;51.194;3.800;2024-03-06T09:14:58;9.10;99.90
22779;DHT22;11556;51.194;3.800;2024-03-06T09:17:25;9.50;99.90
22779;DHT22;11556;51.194;3.800;2024-03-06T09:19:51;9.80;99.90
22779;DHT22;11556;51.194;3.800;2024-03-06T09:22:17;9.90;99.90
22779;DHT22;11556;51.194;3.800;2024-03-06T09:24:43;10.10;99.90
22779;DHT22;11556;51.194;3.800;2024-03-06T09:27:08;10.10;99.90
22779;DHT22;11556;51.194;3.800;2024-03-06T09:29:34;10.20;99.90
22779;DHT22;11556;51.194;3.800;2024-03-06T09:32:00;10.10;99.90
22779;DHT22;11556;51.194;3.800;2024-03-06T09:34:26;10.20;99.90
22779;DHT22;11556;51.194;3.800;2024-03-06T09:36:52;10.40;99.90
22779;DHT22;11556;51.194;3.800;2024-03-06T09:39:18;10.60;99.90
22779;DHT22;11556;51.194;3.800;2024-03-06T09:41:49;10.80;99.90
22779;DHT22;11556;51.194;3.800;2024-03-06T09:44:16;11.00;99.90
22779;DHT22;11556;51.194;3.800;2024-03-06T09:46:46;11.00;99.90
22779;DHT22;11556;51.194;3.800;2024-03-06T09:49:16;11.10;99.90
22779;DHT22;11556;51.194;3.800;2024-03-06T09:51:44;11.10;99.90
22779;DHT22;11556;51.194;3.800;2024-03-06T09:54:11;11.20;99.90
22779;DHT22;11556;51.194;3.800;2024-03-06T09:56:38;11.30;99.90
22779;DHT22;11556;51.194;3.800;2024-03-06T09:59:04;11.30;99.90
22779;DHT22;11556;51.194;3.800;2024-03-06T10:01:31;11.20;99.90
22779;DHT22;11556;51.194;3.800;2024-03-06T10:03:57;11.40;99.90
22779;DHT22;11556;51.194;3.800;2024-03-06T10:06:23;11.40;99.90
22779;DHT22;11556;51.194;3.800;2024-03-06T10:08:50;11.40;99.90
22779;DHT22;11556;51.194;3.800;2024-03-06T10:11:17;11.70;99.90
22779;DHT22;11556;51.194;3.800;2024-03-06T10:13:43;12.00;99.90
22779;DHT22;11556;51.194;3.800;2024-03-06T10:16:08;12.50;99.90
22779;DHT22;11556;51.194;3.800;2024-03-06T10:18:35;13.00;99.90
22779;DHT22;11556;51.194;3.800;2024-03-06T10:21:01;13.30;99.90
22779;DHT22;11556;51.194;3.800;2024-03-06T10:23:27;13.30;99.90
22779;DHT22;11556;51.194;3.800;2024-03-06T10:25:55;13.50;99.90
22779;DHT22;11556;51.194;3.800;2024-03-06T10:28:22;13.70;99.90
22779;DHT22;11556;51.194;3.800;2024-03-06T10:30:48;13.80;99.90
22779;DHT22;11556;51.194;3.800;2024-03-06T10:33:16;14.30;99.90
22779;DHT22;11556;51.194;3.800;2024-03-06T10:35:44;14.50;99.90
22779;DHT22;11556;51.194;3.800;2024-03-06T10:38:11;13.90;99.90
22779;DHT22;11556;51.194;3.800;2024-03-06T10:40:38;13.90;99.90
22779;DHT22;11556;51.194;3.800;2024-03-06T10:43:05;14.30;99.90
22779;DHT22;11556;51.194;3.800;2024-03-06T10:45:48;14.80;99.90
22779;DHT22;11556;51.194;3.800;2024-03-06T10:48:15;14.80;99.90
22779;DHT22;11556;51.194;3.800;2024-03-06T10:50:42;14.50;99.90
22779;DHT22;11556;51.194;3.800;2024-03-06T10:53:11;13.50;99.90
22779;DHT22;11556;51.194;3.800;2024-03-06T10:55:37;12.90;99.90
22779;DHT22;11556;51.194;3.800;2024-03-06T10:58:07;12.80;99.90
22779;DHT22;11556;51.194;3.800;2024-03-06T11:00:37;12.40;99.90
22779;DHT22;11556;51.194;3.800;2024-03-06T11:03:05;12.20;99.90
22779;DHT22;11556;51.194;3.800;2024-03-06T11:05:41;12.90;99.90
22779;DHT22;11556;51.194;3.800;2024-03-06T11:08:11;13.30;99.90
22779;DHT22;11556;51.194;3.800;2024-03-06T11:10:39;13.80;99.90
22779;DHT22;11556;51.194;3.800;2024-03-06T11:15:50;13.70;99.90
22779;DHT22;11556;51.194;3.800;2024-03-06T11:23:30;12.20;99.90
22779;DHT22;11556;51.194;3.800;2024-03-06T11:26:05;12.50;99.90
22779;DHT22;11556;51.194;3.800;2024-03-06T11:28:33;13.40;99.90
22779;DHT22;11556;51.194;3.800;2024-03-06T11:31:06;14.40;99.90
22779;DHT22;11556;51.194;3.800;2024-03-06T11:33:39;15.60;99.90
22779;DHT22;11556;51.194;3.800;2024-03-06T11:36:27;16.70;99.90
22779;DHT22;11556;51.194;3.800;2024-03-06T11:39:01;17.40;99.90
22779;DHT22;11556;51.194;3.800;2024-03-06T11:41:30;17.10;99.90
22779;DHT22;11556;51.194;3.800;2024-03-06T11:43:59;17.20;99.90
22779;DHT22;11556;51.194;3.800;2024-03-06T11:46:48;17.60;99.90
22779;DHT22;11556;51.194;3.800;2024-03-06T11:49:27;18.40;99.90
22779;DHT22;11556;51.194;3.800;2024-03-06T11:52:04;19.00;99.90
22779;DHT22;11556;51.194;3.800;2024-03-06T11:54:39;19.50;99.90
22779;DHT22;11556;51.194;3.800;2024-03-06T11:57:05;19.30;99.90
22779;DHT22;11556;51.194;3.800;2024-03-06T11:59:33;19.30;99.90
22779;DHT22;11556;51.194;3.800;2024-03-06T12:02:01;19.90;99.90
22779;DHT22;11556;51.194;3.800;2024-03-06T12:04:30;20.20;99.90
22779;DHT22;11556;51.194;3.800;2024-03-06T12:06:59;20.30;99.90
22779;DHT22;11556;51.194;3.800;2024-03-06T12:09:25;20.20;99.70
22779;DHT22;11556;51.194;3.800;2024-03-06T12:11:52;20.10;98.80
22779;DHT22;11556;51.194;3.800;2024-03-06T12:14:19;20.00;98.70
22779;DHT22;11556;51.194;3.800;2024-03-06T12:16:56;20.30;97.90
22779;DHT22;11556;51.194;3.800;2024-03-06T12:19:22;20.20;97.40
22779;DHT22;11556;51.194;3.800;2024-03-06T12:21:48;20.20;96.30
22779;DHT22;11556;51.194;3.800;2024-03-06T12:24:16;19.90;95.80
22779;DHT22;11556;51.194;3.800;2024-03-06T12:26:44;18.70;98.10
22779;DHT22;11556;51.194;3.800;2024-03-06T12:29:11;18.20;99.80
22779;DHT22;11556;51.194;3.800;2024-03-06T12:31:42;17.80;99.90
22779;DHT22;11556;51.194;3.800;2024-03-06T12:34:08;17.80;99.90
22779;DHT22;11556;51.194;3.800;2024-03-06T12:36:38;17.70;99.90
22779;DHT22;11556;51.194;3.800;2024-03-06T12:39:04;18.00;99.90
22779;DHT22;11556;51.194;3.800;2024-03-06T12:41:39;18.40;99.00
22779;DHT22;11556;51.194;3.800;2024-03-06T12:44:05;17.40;99.90
22779;DHT22;11556;51.194;3.800;2024-03-06T12:46:32;16.40;99.90
22779;DHT22;11556;51.194;3.800;2024-03-06T12:48:58;15.60;99.90
22779;DHT22;11556;51.194;3.800;2024-03-06T12:51:23;15.30;99.90
22779;DHT22;11556;51.194;3.800;2024-03-06T12:53:49;15.10;99.90
22779;DHT22;11556;51.194;3.800;2024-03-06T12:56:15;14.70;99.90
22779;DHT22;11556;51.194;3.800;2024-03-06T12:58:41;13.90;99.90
22779;DHT22;11556;51.194;3.800;2024-03-06T13:01:06;13.20;99.90
22779;DHT22;11556;51.194;3.800;2024-03-06T13:03:32;12.90;99.90
22779;DHT22;11556;51.194;3.800;2024-03-06T13:05:58;12.90;99.90
22779;DHT22;11556;51.194;3.800;2024-03-06T13:08:23;13.30;99.90
22779;DHT22;11556;51.194;3.800;2024-03-06T13:10:49;13.80;99.90
22779;DHT22;11556;51.194;3.800;2024-03-06T13:13:14;14.10;99.90
22779;DHT22;11556;51.194;3.800;2024-03-06T13:15:40;14.50;99.90
22779;DHT22;11556;51.194;3.800;2024-03-06T13:18:06;14.90;99.90
22779;DHT22;11556;51.194;3.800;2024-03-06T13:20:35;15.20;99.90
22779;DHT22;11556;51.194;3.800;2024-03-06T13:23:01;15.20;99.90
22779;DHT22;11556;51.194;3.800;2024-03-06T13:25:27;15.60;99.90
22779;DHT22;11556;51.194;3.800;2024-03-06T13:27:52;15.70;99.90
22779;DHT22;11556;51.194;3.800;2024-03-06T13:30:19;15.40;99.90
22779;DHT22;11556;51.194;3.800;2024-03-06T13:32:45;15.00;99.90
22779;DHT22;11556;51.194;3.800;2024-03-06T13:35:12;14.70;99.90
22779;DHT22;11556;51.194;3.800;2024-03-06T13:37:41;15.00;99.90
22779;DHT22;11556;51.194;3.800;2024-03-06T13:40:08;15.60;99.90
22779;DHT22;11556;51.194;3.800;2024-03-06T13:42:37;16.60;99.90
22779;DHT22;11556;51.194;3.800;2024-03-06T13:45:03;16.60;99.90
22779;DHT22;11556;51.194;3.800;2024-03-06T13:47:30;16.10;99.90
22779;DHT22;11556;51.194;3.800;2024-03-06T13:49:56;15.40;99.90
22779;DHT22;11556;51.194;3.800;2024-03-06T13:52:21;15.10;99.90
22779;DHT22;11556;51.194;3.800;2024-03-06T13:54:49;14.30;99.90
22779;DHT22;11556;51.194;3.800;2024-03-06T13:57:15;13.70;99.90
22779;DHT22;11556;51.194;3.800;2024-03-06T13:59:41;13.50;99.90
22779;DHT22;11556;51.194;3.800;2024-03-06T14:02:07;13.30;99.90
22779;DHT22;11556;51.194;3.800;2024-03-06T14:04:33;13.40;99.90
22779;DHT22;11556;51.194;3.800;2024-03-06T14:06:59;13.30;99.90
22779;DHT22;11556;51.194;3.800;2024-03-06T14:09:26;13.50;99.90
22779;DHT22;11556;51.194;3.800;2024-03-06T14:11:53;14.30;99.90
22779;DHT22;11556;51.194;3.800;2024-03-06T14:14:19;15.50;99.90
22779;DHT22;11556;51.194;3.800;2024-03-06T14:16:45;16.10;99.90
22779;DHT22;11556;51.194;3.800;2024-03-06T14:19:11;16.10;99.90
22779;DHT22;11556;51.194;3.800;2024-03-06T14:21:38;16.70;99.90
22779;DHT22;11556;51.194;3.800;2024-03-06T14:24:04;16.70;99.90
22779;DHT22;11556;51.194;3.800;2024-03-06T14:26:34;16.80;99.90
22779;DHT22;11556;51.194;3.800;2024-03-06T14:29:01;16.70;99.90
22779;DHT22;11556;51.194;3.800;2024-03-06T14:31:32;16.50;99.90
22779;DHT22;11556;51.194;3.800;2024-03-06T14:33:58;16.60;99.90
22779;DHT22;11556;51.194;3.800;2024-03-06T14:36:24;16.50;99.90
22779;DHT22;11556;51.194;3.800;2024-03-06T14:38:52;16.60;99.90
22779;DHT22;11556;51.194;3.800;2024-03-06T14:41:19;17.60;99.90
22779;DHT22;11556;51.194;3.800;2024-03-06T14:43:46;18.70;99.90
22779;DHT22;11556;51.194;3.800;2024-03-06T14:46:11;19.30;99.80
22779;DHT22;11556;51.194;3.800;2024-03-06T14:48:38;20.10;96.10
22779;DHT22;11556;51.194;3.800;2024-03-06T14:51:04;20.80;93.10
22779;DHT22;11556;51.194;3.800;2024-03-06T14:53:30;21.20;91.50
22779;DHT22;11556;51.194;3.800;2024-03-06T14:55:57;21.80;88.90
22779;DHT22;11556;51.194;3.800;2024-03-06T14:58:22;22.60;84.60
22779;DHT22;11556;51.194;3.800;2024-03-06T15:00:49;22.80;76.30
22779;DHT22;11556;51.194;3.800;2024-03-06T15:03:16;22.60;76.10
22779;DHT22;11556;51.194;3.800;2024-03-06T15:05:43;21.50;75.60
22779;DHT22;11556;51.194;3.800;2024-03-06T15:08:09;20.80;78.80
22779;DHT22;11556;51.194;3.800;2024-03-06T15:10:34;20.00;82.70
22779;DHT22;11556;51.194;3.800;2024-03-06T15:13:00;19.80;83.90
22779;DHT22;11556;51.194;3.800;2024-03-06T15:15:25;19.40;84.60
22779;DHT22;11556;51.194;3.800;2024-03-06T15:17:51;19.00;85.20
22779;DHT22;11556;51.194;3.800;2024-03-06T15:20:17;18.50;88.90
22779;DHT22;11556;51.194;3.800;2024-03-06T15:22:46;18.10;89.90
22779;DHT22;11556;51.194;3.800;2024-03-06T15:25:13;17.80;91.50
22779;DHT22;11556;51.194;3.800;2024-03-06T15:27:39;17.20;92.50
22779;DHT22;11556;51.194;3.800;2024-03-06T15:30:07;16.50;93.80
22779;DHT22;11556;51.194;3.800;2024-03-06T15:32:34;16.00;95.20
22779;DHT22;11556;51.194;3.800;2024-03-06T15:35:00;15.60;99.90
22779;DHT22;11556;51.194;3.800;2024-03-06T15:37:26;15.80;99.90
22779;DHT22;11556;51.194;3.800;2024-03-06T15:39:55;14.90;99.90
22779;DHT22;11556;51.194;3.800;2024-03-06T15:42:21;14.60;99.90
22779;DHT22;11556;51.194;3.800;2024-03-06T15:44:48;14.30;99.90